Portada
METAR-TAF:

METAR-TAF

Aeroports :

Rodrigues, Maurici

latitud: 19-41S, longitud: 063-25E, altitud: 58 m

Observació

L'informe es va fer fa 1 hora i 10 minuts, a les 06:00 UTC
Vent 13 kt del Est
Temperatura 30°C
Humitat 79%
Pressió 1012 hPa
Visibilitat 10 km o més
Núvols disperses a una alçada de 1700 ft

METAR: FIMR 180600Z 10013KT 9999 SCT017 30/26 Q1012

Hora: 11:10 (07:10 UTC)

Pronòstic

L'informe es va fer fa 1 hora i 45 minuts, a les 05:25 UTC
Pronòstic vàlid del 18 a les 06 UTC al 19 a les 00 UTC
Vent 13 kt del Est/Sud-Est amb ràfegues de 25 kt
Visibilitat 10 km o més
Núvols disperses a una alçada de 1700 ft
Probabilitat 30% :
Temporalment
l' 18 a les 15 UTC al 19 a les 00 UTC
Visibilitat: 7000 m
Cel ennuvolat a una alçada de 1500 ft
xàfecs de pluja

TAF: FIMR 180525Z 1806/1900 11013G25KT 9999 SCT017 PROB30 TEMPO 1815/1900 7000 -SHRA BKN015

Observacions i pronòstics meteorològics de més de 4000 aeroports (METAR i TAF).

Les estacions disponibles són els punts grocs i vermells al mapa.

Posi el ratolí al punt desitjat per veure el nom de l'estació.

Feu clic per veure les observacions i els pronòstics meteorològics.

Per canviar el mapa: feu clic els botons verds amb una creu de color negre per apropar; al botó verd amb un guió per allunyar la imatge; o en les fletxes verdes per a mapes adjacents.


METAR-TAF: